createdAt,value
2024-02-03T00:00:52.527Z,19.93
2024-02-03T00:03:39.351Z,19.73
2024-02-03T00:06:28.535Z,19.68
2024-02-03T00:09:17.628Z,20.42
2024-02-03T00:12:06.240Z,19.71
2024-02-03T00:14:53.506Z,19.50
2024-02-03T00:17:43.171Z,19.64
2024-02-03T00:20:30.087Z,20.58
2024-02-03T00:23:18.965Z,20.33
2024-02-03T00:26:07.518Z,20.75
2024-02-03T00:28:55.552Z,20.97
2024-02-03T00:31:44.658Z,20.66
2024-02-03T00:34:31.222Z,19.81
2024-02-03T00:37:18.003Z,19.96
2024-02-03T00:40:08.872Z,20.64
2024-02-03T00:42:57.255Z,20.62
2024-02-03T00:45:44.447Z,20.34
2024-02-03T00:48:31.124Z,21.25
2024-02-03T00:51:17.899Z,20.86
2024-02-03T00:54:04.943Z,20.61
2024-02-03T00:56:51.795Z,20.51
2024-02-03T00:59:40.292Z,20.11
2024-02-03T01:02:26.970Z,21.20
2024-02-03T01:05:13.828Z,20.63
2024-02-03T01:08:00.653Z,21.44
2024-02-03T01:10:47.843Z,20.73
2024-02-03T01:13:34.444Z,19.89
2024-02-03T01:16:22.931Z,20.36
2024-02-03T01:19:09.745Z,20.29
2024-02-03T01:21:56.335Z,20.52
2024-02-03T01:24:43.197Z,19.82
2024-02-03T01:27:30.094Z,21.09
2024-02-03T01:30:17.138Z,20.73
2024-02-03T01:33:05.447Z,21.29
2024-02-03T01:35:58.143Z,21.33
2024-02-03T01:38:51.957Z,20.82
2024-02-03T01:41:41.994Z,21.11
2024-02-03T01:44:32.583Z,20.88
2024-02-03T01:47:20.479Z,20.23
2024-02-03T01:50:10.238Z,21.13
2024-02-03T01:52:57.271Z,21.07
2024-02-03T01:55:44.482Z,20.81
2024-02-03T01:58:31.530Z,21.20
2024-02-03T02:01:18.205Z,21.42
2024-02-03T02:04:05.325Z,21.38
2024-02-03T02:06:53.397Z,21.00
2024-02-03T02:09:40.291Z,21.20
2024-02-03T02:12:27.218Z,21.21
2024-02-03T02:15:14.077Z,21.34
2024-02-03T02:18:01.804Z,21.30
2024-02-03T02:20:49.725Z,21.23
2024-02-03T02:23:36.340Z,20.76
2024-02-03T02:26:23.202Z,20.84
2024-02-03T02:29:09.976Z,21.31
2024-02-03T02:31:56.860Z,21.35
2024-02-03T02:34:43.923Z,21.75
2024-02-03T02:37:54.518Z,21.10
2024-02-03T02:40:43.657Z,20.78
2024-02-03T02:43:30.555Z,21.61
2024-02-03T02:46:23.124Z,20.67
2024-02-03T02:49:10.942Z,20.87
2024-02-03T02:51:57.515Z,21.49
2024-02-03T02:54:46.436Z,21.72
2024-02-03T02:57:33.370Z,21.27
2024-02-03T03:00:20.817Z,20.64
2024-02-03T03:03:07.884Z,21.00
2024-02-03T03:05:54.687Z,20.66
2024-02-03T03:08:41.718Z,21.10
2024-02-03T03:11:29.928Z,21.31
2024-02-03T03:14:16.980Z,21.07
2024-02-03T03:17:03.977Z,20.58
2024-02-03T03:19:50.962Z,21.09
2024-02-03T03:22:37.711Z,20.41
2024-02-03T03:25:24.729Z,21.51
2024-02-03T03:28:13.077Z,20.76
2024-02-03T03:31:00.128Z,20.13
2024-02-03T03:33:47.373Z,20.66
2024-02-03T03:36:33.968Z,21.24
2024-02-03T03:39:20.765Z,20.88
2024-02-03T03:42:08.187Z,19.45
2024-02-03T03:44:56.394Z,20.34
2024-02-03T03:47:43.161Z,20.06
2024-02-03T03:50:30.206Z,21.25
2024-02-03T03:53:17.164Z,20.80
2024-02-03T03:56:04.054Z,21.23
2024-02-03T03:58:50.976Z,20.42
2024-02-03T04:01:39.316Z,20.68
2024-02-03T04:04:26.134Z,20.57
2024-02-03T04:07:12.900Z,21.17
2024-02-03T04:09:59.928Z,21.14
2024-02-03T04:12:47.021Z,20.60
2024-02-03T04:15:33.911Z,20.52
2024-02-03T04:18:22.423Z,21.57
2024-02-03T04:21:09.189Z,21.50
2024-02-03T04:23:55.974Z,20.83
2024-02-03T04:26:42.935Z,20.60
2024-02-03T04:29:30.145Z,20.71
2024-02-03T04:32:16.853Z,21.41
2024-02-03T04:35:06.317Z,21.20
2024-02-03T04:37:52.944Z,21.79
2024-02-03T04:40:39.889Z,21.89
2024-02-03T04:43:26.615Z,20.35
2024-02-03T04:46:13.891Z,20.56
2024-02-03T04:49:01.120Z,21.43
2024-02-03T04:51:49.689Z,20.94
2024-02-03T04:54:36.586Z,20.79
2024-02-03T04:57:23.344Z,21.09
2024-02-03T05:00:11.190Z,20.93
2024-02-03T05:02:57.931Z,21.90
2024-02-03T05:05:44.905Z,21.43
2024-02-03T05:08:33.488Z,20.89
2024-02-03T05:11:20.276Z,20.90
2024-02-03T05:14:07.299Z,21.73
2024-02-03T05:16:54.194Z,21.45
2024-02-03T05:19:41.133Z,21.01
2024-02-03T05:22:27.994Z,21.07
2024-02-03T05:25:17.693Z,21.00
2024-02-03T05:28:04.692Z,21.32
2024-02-03T05:30:51.612Z,21.09
2024-02-03T05:33:38.375Z,21.66
2024-02-03T05:36:25.262Z,21.69
2024-02-03T05:39:12.144Z,21.21
2024-02-03T05:42:00.368Z,21.66
2024-02-03T05:44:47.221Z,22.54
2024-02-03T05:47:34.121Z,21.25
2024-02-03T05:50:21.092Z,21.87
2024-02-03T05:53:08.890Z,21.53
2024-02-03T05:55:55.959Z,22.39
2024-02-03T05:58:45.494Z,21.12
2024-02-03T06:01:32.184Z,22.05
2024-02-03T06:04:19.165Z,21.25
2024-02-03T06:07:07.276Z,21.71
2024-02-03T06:09:54.751Z,22.58
2024-02-03T06:12:43.111Z,21.50
2024-02-03T06:15:32.269Z,22.00
2024-02-03T06:18:19.396Z,21.75
2024-02-03T06:21:06.710Z,21.98
2024-02-03T06:24:08.962Z,21.54
2024-02-03T06:26:57.945Z,21.73
2024-02-03T06:29:48.238Z,21.41
2024-02-03T06:32:37.138Z,22.16
2024-02-03T06:35:24.578Z,21.44
2024-02-03T06:38:11.975Z,22.21
2024-02-03T06:40:59.121Z,22.08
2024-02-03T06:43:47.198Z,21.37
2024-02-03T06:46:33.932Z,21.68
2024-02-03T06:49:23.115Z,21.81
2024-02-03T06:52:10.339Z,21.64
2024-02-03T06:54:57.328Z,22.40
2024-02-03T06:57:44.248Z,22.08
2024-02-03T07:00:31.144Z,21.46
2024-02-03T07:03:18.945Z,21.71
2024-02-03T07:06:07.317Z,22.36
2024-02-03T07:08:54.175Z,21.94
2024-02-03T07:11:49.593Z,21.94
2024-02-03T07:14:43.698Z,22.34
2024-02-03T07:17:30.759Z,22.36
2024-02-03T07:20:17.771Z,22.86
2024-02-03T07:23:05.989Z,21.73
2024-02-03T07:25:52.633Z,21.19
2024-02-03T07:28:39.779Z,22.19
2024-02-03T07:31:28.057Z,22.94
2024-02-03T07:34:15.023Z,22.75
2024-02-03T07:37:02.121Z,22.54
2024-02-03T07:39:50.274Z,22.00
2024-02-03T07:42:37.115Z,22.44
2024-02-03T07:45:24.177Z,22.41
2024-02-03T07:48:11.204Z,22.49
2024-02-03T07:50:57.819Z,21.34
2024-02-03T07:53:44.767Z,22.67
2024-02-03T07:56:34.146Z,21.93
2024-02-03T07:59:22.158Z,21.73
2024-02-03T08:02:09.830Z,22.72
2024-02-03T08:04:56.667Z,21.79
2024-02-03T08:07:43.737Z,22.44
2024-02-03T08:10:30.601Z,22.73
2024-02-03T08:13:18.867Z,22.58
2024-02-03T08:16:07.489Z,22.32
2024-02-03T08:18:54.414Z,22.40
2024-02-03T08:21:40.955Z,21.33
2024-02-03T08:24:27.803Z,21.34
2024-02-03T08:27:14.758Z,22.15
2024-02-03T08:30:03.063Z,22.18
2024-02-03T08:32:49.833Z,22.42
2024-02-03T08:35:36.898Z,21.24
2024-02-03T08:38:23.676Z,21.77
2024-02-03T08:41:10.801Z,20.74
2024-02-03T08:43:57.753Z,22.23
2024-02-03T08:46:46.395Z,21.44
2024-02-03T08:49:33.351Z,21.55
2024-02-03T08:52:20.266Z,22.21
2024-02-03T08:55:07.700Z,22.39
2024-02-03T08:57:54.568Z,21.96
2024-02-03T09:00:43.312Z,21.36
2024-02-03T09:03:32.704Z,20.99
2024-02-03T09:06:19.391Z,21.39
2024-02-03T09:09:07.064Z,21.90
2024-02-03T09:11:53.654Z,22.17
2024-02-03T09:14:40.842Z,21.89
2024-02-03T09:17:32.497Z,21.29
2024-02-03T09:20:25.663Z,22.18
2024-02-03T09:23:14.611Z,23.04
2024-02-03T09:26:02.790Z,22.17
2024-02-03T09:28:50.474Z,22.83
2024-02-03T09:31:37.540Z,22.26
2024-02-03T09:34:24.414Z,22.67
2024-02-03T09:40:04.951Z,22.71
2024-02-03T09:42:52.096Z,22.23
2024-02-03T09:45:39.610Z,21.54
2024-02-03T09:48:26.693Z,21.56
2024-02-03T09:51:13.979Z,22.17
2024-02-03T09:54:02.585Z,21.78
2024-02-03T09:56:49.529Z,22.54
2024-02-03T09:59:36.512Z,21.45
2024-02-03T10:02:23.495Z,22.28
2024-02-03T10:05:10.890Z,22.36
2024-02-03T10:08:02.193Z,22.84
2024-02-03T10:10:54.611Z,22.34
2024-02-03T10:13:41.064Z,22.26
2024-02-03T10:16:28.160Z,22.69
2024-02-03T10:19:15.316Z,23.16
2024-02-03T10:22:02.094Z,21.89
2024-02-03T10:24:48.947Z,22.70
2024-02-03T10:27:37.494Z,22.64
2024-02-03T10:30:24.413Z,23.43
2024-02-03T10:33:11.066Z,23.07
2024-02-03T10:35:59.132Z,23.07
2024-02-03T10:38:45.866Z,22.41
2024-02-03T10:41:37.747Z,22.34
2024-02-03T10:44:27.031Z,22.88
2024-02-03T10:47:14.151Z,21.85
2024-02-03T10:50:02.281Z,22.30
2024-02-03T10:52:51.452Z,22.34
2024-02-03T10:55:41.805Z,22.41
2024-02-03T10:58:31.338Z,22.56
2024-02-03T11:01:22.647Z,22.03
2024-02-03T11:04:09.718Z,21.83
2024-02-03T11:06:59.835Z,22.14
2024-02-03T11:09:46.733Z,22.58
2024-02-03T11:12:37.225Z,23.01
2024-02-03T11:15:24.162Z,23.51
2024-02-03T11:18:14.398Z,23.07
2024-02-03T11:21:06.994Z,22.32
2024-02-03T11:23:53.528Z,22.46
2024-02-03T11:26:41.150Z,21.88
2024-02-03T11:29:28.289Z,22.15
2024-02-03T11:32:16.117Z,22.11
2024-02-03T11:35:05.577Z,21.93
2024-02-03T11:37:52.094Z,21.87
2024-02-03T11:40:46.202Z,22.72
2024-02-03T11:43:32.880Z,22.36
2024-02-03T11:46:20.131Z,22.01
2024-02-03T11:49:06.957Z,20.95
2024-02-03T11:52:01.709Z,22.15
2024-02-03T11:54:49.479Z,21.82
2024-02-03T11:57:35.866Z,21.88
2024-02-03T12:00:22.786Z,21.86
2024-02-03T12:03:09.535Z,21.74
2024-02-03T12:05:56.584Z,22.51
2024-02-03T12:08:44.630Z,23.06
2024-02-03T12:11:31.967Z,22.32
2024-02-03T12:14:20.151Z,22.07
2024-02-03T12:17:07.912Z,22.38
2024-02-03T12:19:56.331Z,22.02
2024-02-03T12:22:43.533Z,21.74
2024-02-03T12:25:32.464Z,21.89
2024-02-03T12:28:19.681Z,22.65
2024-02-03T12:31:06.770Z,22.33
2024-02-03T12:33:53.772Z,22.84
2024-02-03T12:36:40.655Z,22.32
2024-02-03T12:39:27.639Z,22.93
2024-02-03T12:42:15.982Z,22.33
2024-02-03T12:45:02.857Z,22.92
2024-02-03T12:47:49.328Z,23.31
2024-02-03T12:50:36.209Z,22.85
2024-02-03T12:53:23.421Z,22.36
2024-02-03T12:56:10.208Z,22.89
2024-02-03T12:58:58.200Z,22.95
2024-02-03T13:01:45.150Z,23.27
2024-02-03T13:04:31.994Z,22.68
2024-02-03T13:07:18.744Z,23.70
2024-02-03T13:10:06.387Z,23.26
2024-02-03T13:12:53.072Z,22.14
2024-02-03T13:15:41.109Z,23.32
2024-02-03T13:18:28.126Z,22.62
2024-02-03T13:21:14.980Z,22.46
2024-02-03T13:24:01.856Z,23.56
2024-02-03T13:26:48.665Z,22.54
2024-02-03T13:29:38.504Z,23.17
2024-02-03T13:32:27.017Z,22.29
2024-02-03T13:35:13.977Z,23.13
2024-02-03T13:38:04.947Z,22.70
2024-02-03T13:40:52.120Z,23.24
2024-02-03T13:43:38.769Z,22.36
2024-02-03T13:46:27.104Z,22.64
2024-02-03T13:49:15.544Z,23.58
2024-02-03T13:52:02.352Z,21.91
2024-02-03T13:54:49.307Z,23.17
2024-02-03T13:57:36.123Z,22.92
2024-02-03T14:00:23.834Z,22.31
2024-02-03T14:03:10.505Z,22.99
2024-02-03T14:05:58.623Z,22.73
2024-02-03T14:08:45.510Z,22.85
2024-02-03T14:11:42.104Z,22.39
2024-02-03T14:14:37.709Z,23.31
2024-02-03T14:17:24.640Z,22.07
2024-02-03T14:20:13.787Z,23.01
2024-02-03T14:23:01.784Z,23.24
2024-02-03T14:25:48.762Z,23.13
2024-02-03T14:28:35.642Z,23.00
2024-02-03T14:31:22.665Z,22.68
2024-02-03T14:34:09.743Z,23.19
2024-02-03T14:36:56.636Z,22.06
2024-02-03T14:39:44.869Z,23.00
2024-02-03T14:42:31.576Z,23.07
2024-02-03T14:45:18.387Z,22.87
2024-02-03T14:48:05.876Z,23.27
2024-02-03T14:50:52.717Z,23.01
2024-02-03T14:53:40.431Z,22.38
2024-02-03T14:56:28.216Z,22.63
2024-02-03T14:59:15.614Z,22.87
2024-02-03T15:02:03.001Z,22.48
2024-02-03T15:04:49.476Z,22.50
2024-02-03T15:07:37.069Z,23.11
2024-02-03T15:10:23.811Z,22.85
2024-02-03T15:13:12.356Z,23.63
2024-02-03T15:15:59.127Z,23.27
2024-02-03T15:18:45.775Z,22.70
2024-02-03T15:21:32.692Z,23.44
2024-02-03T15:24:19.575Z,23.62
2024-02-03T15:27:06.339Z,23.45
2024-02-03T15:29:54.769Z,22.92
2024-02-03T15:32:41.646Z,22.72
2024-02-03T15:35:28.554Z,23.07
2024-02-03T15:38:15.410Z,22.43
2024-02-03T15:41:02.427Z,23.34
2024-02-03T15:43:49.394Z,22.63
2024-02-03T15:46:44.661Z,22.35
2024-02-03T15:49:33.432Z,22.38
2024-02-03T15:52:20.443Z,21.88
2024-02-03T15:55:08.262Z,21.33
2024-02-03T15:57:54.984Z,22.10
2024-02-03T16:00:42.203Z,22.92
2024-02-03T16:03:30.378Z,22.82
2024-02-03T16:06:17.261Z,22.62
2024-02-03T16:09:04.214Z,23.21
2024-02-03T16:11:51.174Z,23.06
2024-02-03T16:14:38.053Z,22.70
2024-02-03T16:17:25.036Z,22.19
2024-02-03T16:20:16.006Z,22.42
2024-02-03T16:23:03.863Z,23.05
2024-02-03T16:25:50.662Z,22.65
2024-02-03T16:28:40.365Z,23.11
2024-02-03T16:31:26.933Z,23.30
2024-02-03T16:34:14.039Z,22.53
2024-02-03T16:37:02.229Z,22.56
2024-02-03T16:39:48.958Z,22.87
2024-02-03T16:42:35.713Z,23.21
2024-02-03T16:45:22.799Z,23.10
2024-02-03T16:48:09.838Z,22.87
2024-02-03T16:50:56.861Z,23.34
2024-02-03T16:53:45.212Z,23.03
2024-02-03T16:56:32.275Z,22.22
2024-02-03T16:59:19.072Z,22.39
2024-02-03T17:02:06.310Z,22.06
2024-02-03T17:04:53.164Z,21.42
2024-02-03T17:07:40.086Z,21.34
2024-02-03T17:10:28.402Z,21.83
2024-02-03T17:13:15.329Z,22.29
2024-02-03T17:16:06.246Z,21.95
2024-02-03T17:18:53.644Z,21.69
2024-02-03T17:21:40.205Z,22.32
2024-02-03T17:24:27.200Z,22.33
2024-02-03T17:27:15.476Z,22.73
2024-02-03T17:30:02.284Z,22.51
2024-02-03T17:32:49.297Z,22.34
2024-02-03T17:35:36.218Z,22.43
2024-02-03T17:38:23.077Z,22.67
2024-02-03T17:41:10.526Z,22.00
2024-02-03T17:43:58.870Z,22.62
2024-02-03T17:46:45.699Z,22.26
2024-02-03T17:49:33.070Z,22.20
2024-02-03T17:52:20.272Z,22.35
2024-02-03T17:55:07.379Z,22.78
2024-02-03T17:57:53.965Z,21.79
2024-02-03T18:00:42.419Z,22.15
2024-02-03T18:03:29.254Z,21.63
2024-02-03T18:06:16.049Z,22.14
2024-02-03T18:09:03.641Z,22.07
2024-02-03T18:11:50.399Z,21.98
2024-02-03T18:14:37.384Z,22.37
2024-02-03T18:17:25.680Z,22.62
2024-02-03T18:20:16.776Z,22.74
2024-02-03T18:23:06.203Z,21.54
2024-02-03T18:25:53.168Z,22.40
2024-02-03T18:28:39.935Z,22.00
2024-02-03T18:31:26.976Z,22.46
2024-02-03T18:34:15.361Z,22.75
2024-02-03T18:37:02.161Z,22.90
2024-02-03T18:39:53.846Z,22.59
2024-02-03T18:42:44.054Z,22.91
2024-02-03T18:45:31.747Z,22.04
2024-02-03T18:48:18.778Z,22.64
2024-02-03T18:51:07.174Z,22.34
2024-02-03T18:53:53.896Z,22.65
2024-02-03T18:56:40.894Z,22.42
2024-02-03T18:59:27.743Z,22.56
2024-02-03T19:02:14.581Z,21.85
2024-02-03T19:05:02.047Z,22.32
2024-02-03T19:07:50.202Z,21.88
2024-02-03T19:10:37.048Z,22.22
2024-02-03T19:13:24.612Z,21.46
2024-02-03T19:16:11.323Z,20.89
2024-02-03T19:18:58.199Z,20.71
2024-02-03T19:21:45.087Z,20.97
2024-02-03T19:24:33.530Z,20.69
2024-02-03T19:27:21.570Z,20.67
2024-02-03T19:30:09.232Z,21.04
2024-02-03T19:32:56.376Z,21.14
2024-02-03T19:35:43.928Z,21.34
2024-02-03T19:38:30.623Z,20.97
2024-02-03T19:41:18.848Z,21.18
2024-02-03T19:44:05.866Z,20.58
2024-02-03T19:46:52.874Z,21.18
2024-02-03T19:49:39.984Z,20.87
2024-02-03T19:52:26.651Z,20.41
2024-02-03T19:55:13.561Z,20.70
2024-02-03T19:58:01.924Z,20.85
2024-02-03T20:00:48.801Z,20.99
2024-02-03T20:03:35.848Z,20.22
2024-02-03T20:06:22.792Z,19.98
2024-02-03T20:09:10.235Z,20.27
2024-02-03T20:11:56.832Z,20.06
2024-02-03T20:14:45.110Z,19.98
2024-02-03T20:17:32.028Z,20.63
2024-02-03T20:20:19.144Z,20.31
2024-02-03T20:23:06.898Z,19.58
2024-02-03T20:25:53.485Z,20.36
2024-02-03T20:28:40.914Z,20.05
2024-02-03T20:31:29.193Z,19.88
2024-02-03T20:34:18.404Z,19.49
2024-02-03T20:37:06.014Z,19.70
2024-02-03T20:39:53.023Z,19.92
2024-02-03T20:42:39.865Z,19.91
2024-02-03T20:45:26.797Z,19.46
2024-02-03T20:48:15.065Z,19.17
2024-02-03T20:51:01.934Z,19.63
2024-02-03T20:53:48.654Z,19.67
2024-02-03T20:56:35.565Z,19.94
2024-02-03T20:59:25.502Z,20.39
2024-02-03T21:02:13.337Z,19.22
2024-02-03T21:05:03.828Z,18.85
2024-02-03T21:07:55.463Z,19.37
2024-02-03T21:10:44.108Z,19.20
2024-02-03T21:13:33.370Z,19.08
2024-02-03T21:16:23.288Z,19.59
2024-02-03T21:19:12.324Z,19.75
2024-02-03T21:22:02.753Z,19.71
2024-02-03T21:24:51.769Z,19.62
2024-02-03T21:27:42.308Z,19.81
2024-02-03T21:30:31.476Z,20.23
2024-02-03T21:33:21.542Z,19.86
2024-02-03T21:36:14.011Z,19.52
2024-02-03T21:39:05.714Z,19.79
2024-02-03T21:41:53.534Z,19.97
2024-02-03T21:44:47.865Z,19.93
2024-02-03T21:47:36.148Z,19.78
2024-02-03T21:50:24.417Z,19.87
2024-02-03T21:53:12.602Z,19.78
2024-02-03T21:56:01.523Z,19.76
2024-02-03T21:58:50.139Z,19.74
2024-02-03T22:01:38.550Z,19.61
2024-02-03T22:04:27.073Z,19.99
2024-02-03T22:07:18.977Z,19.89
2024-02-03T22:10:10.830Z,20.20
2024-02-03T22:13:00.801Z,20.29
2024-02-03T22:15:51.012Z,20.43
2024-02-03T22:18:40.882Z,20.12
2024-02-03T22:21:28.855Z,20.09
2024-02-03T22:24:18.062Z,19.49
2024-02-03T22:27:08.243Z,19.78
2024-02-03T22:29:59.572Z,19.28
2024-02-03T22:32:48.991Z,18.44
2024-02-03T22:35:38.697Z,18.85
2024-02-03T22:38:28.879Z,19.67
2024-02-03T22:41:16.530Z,19.45
2024-02-03T22:44:05.270Z,19.61
2024-02-03T22:46:55.843Z,19.89
2024-02-03T22:49:44.753Z,19.73
2024-02-03T22:52:34.315Z,20.10
2024-02-03T22:55:24.221Z,20.53
2024-02-03T22:58:12.397Z,20.45
2024-02-03T23:01:02.754Z,20.93
2024-02-03T23:03:54.130Z,20.76
2024-02-03T23:06:44.644Z,20.99
2024-02-03T23:09:35.985Z,20.59
2024-02-03T23:12:27.523Z,19.58
2024-02-03T23:15:20.153Z,20.20
2024-02-03T23:18:09.096Z,19.58
2024-02-03T23:21:00.038Z,20.12
2024-02-03T23:23:49.448Z,19.98
2024-02-03T23:26:36.957Z,19.76
2024-02-03T23:29:23.644Z,20.18
2024-02-03T23:32:14.568Z,20.28
2024-02-03T23:35:01.895Z,19.69
2024-02-03T23:37:49.849Z,19.52
2024-02-03T23:40:36.792Z,18.30
2024-02-03T23:43:23.693Z,18.70
2024-02-03T23:46:10.662Z,18.56
2024-02-03T23:48:57.538Z,19.29
2024-02-03T23:51:44.331Z,19.18
2024-02-03T23:54:32.610Z,19.26
2024-02-03T23:57:19.450Z,20.19
